createdAt,value
2019-04-20T00:00:09.518Z,12.31
2019-04-20T00:01:07.358Z,12.49
2019-04-20T00:02:13.692Z,12.53
2019-04-20T00:03:06.022Z,12.51
2019-04-20T00:04:09.887Z,12.61
2019-04-20T00:05:05.870Z,12.66
2019-04-20T00:06:06.989Z,12.82
2019-04-20T00:07:06.046Z,12.82
2019-04-20T00:08:09.101Z,12.89
2019-04-20T00:09:12.232Z,12.89
2019-04-20T00:10:13.104Z,12.91
2019-04-20T00:11:11.717Z,12.88
2019-04-20T00:12:12.729Z,12.91
2019-04-20T00:13:16.583Z,12.78
2019-04-20T00:14:10.973Z,12.74
2019-04-20T00:15:05.130Z,12.71
2019-04-20T00:16:06.232Z,12.73
2019-04-20T00:17:05.206Z,12.63
2019-04-20T00:18:06.806Z,12.66
2019-04-20T00:19:05.841Z,12.64
2019-04-20T00:20:15.525Z,12.74
2019-04-20T00:21:08.589Z,12.69
2019-04-20T00:22:08.263Z,12.66
2019-04-20T00:23:05.825Z,12.69
2019-04-20T00:24:11.436Z,12.71
2019-04-20T00:25:11.867Z,12.78
2019-04-20T00:26:13.163Z,12.81
2019-04-20T00:27:26.268Z,12.71
2019-04-20T00:28:20.808Z,12.78
2019-04-20T00:29:21.288Z,12.85
2019-04-20T00:30:26.425Z,12.74
2019-04-20T00:31:22.491Z,12.86
2019-04-20T00:32:14.421Z,12.85
2019-04-20T00:33:14.786Z,12.78
2019-04-20T00:34:11.941Z,12.89
2019-04-20T00:35:04.148Z,12.88
2019-04-20T00:36:03.518Z,13.04
2019-04-20T00:37:05.185Z,13.07
2019-04-20T00:38:03.453Z,13.33
2019-04-20T00:39:06.410Z,13.36
2019-04-20T00:40:03.717Z,13.59
2019-04-20T00:41:07.596Z,13.65
2019-04-20T00:42:06.677Z,13.70
2019-04-20T00:43:03.090Z,13.78
2019-04-20T00:44:09.411Z,13.91
2019-04-20T00:45:10.616Z,13.84
2019-04-20T00:46:09.107Z,13.87
2019-04-20T00:47:14.435Z,13.89
2019-04-20T00:48:07.968Z,13.78
2019-04-20T00:49:17.307Z,13.63
2019-04-20T00:50:18.470Z,13.56
2019-04-20T00:51:24.115Z,13.37
2019-04-20T00:52:31.288Z,13.17
2019-04-20T00:53:10.131Z,13.04
2019-04-20T00:54:03.642Z,12.88
2019-04-20T00:55:02.420Z,12.78
2019-04-20T00:56:03.314Z,12.67
2019-04-20T00:57:13.509Z,12.42
2019-04-20T00:58:14.778Z,12.33
2019-04-20T00:59:13.012Z,12.19
2019-04-20T01:00:21.928Z,12.09
2019-04-20T01:01:20.567Z,12.12
2019-04-20T01:02:16.920Z,11.97
2019-04-20T01:03:15.836Z,11.84
2019-04-20T01:04:20.231Z,11.76
2019-04-20T01:05:18.060Z,11.68
2019-04-20T01:06:24.743Z,11.61
2019-04-20T01:07:13.945Z,11.59
2019-04-20T01:08:04.508Z,11.56
2019-04-20T01:09:01.356Z,11.47
2019-04-20T01:10:00.934Z,11.54
2019-04-20T01:11:01.527Z,11.43
2019-04-20T01:12:05.131Z,11.31
2019-04-20T01:13:06.731Z,11.32
2019-04-20T01:14:04.370Z,11.34
2019-04-20T01:15:05.146Z,11.32
2019-04-20T01:16:06.222Z,11.20
2019-04-20T01:17:11.415Z,11.20
2019-04-20T01:18:00.321Z,11.26
2019-04-20T01:19:00.244Z,11.18
2019-04-20T01:20:00.169Z,11.18
2019-04-20T01:21:06.864Z,11.16
2019-04-20T01:22:06.635Z,11.11
2019-04-20T01:23:06.657Z,11.16
2019-04-20T01:24:04.531Z,11.20
2019-04-20T01:25:07.884Z,11.13
2019-04-20T01:26:05.513Z,11.10
2019-04-20T01:27:02.497Z,10.99
2019-04-20T01:28:11.914Z,11.08
2019-04-20T01:29:12.146Z,11.03
2019-04-20T01:30:09.938Z,11.02
2019-04-20T01:31:12.543Z,10.96
2019-04-20T01:32:10.471Z,11.06
2019-04-20T01:33:14.874Z,10.99
2019-04-20T01:34:06.185Z,11.13
2019-04-20T01:35:10.037Z,11.03
2019-04-20T01:36:21.585Z,11.10
2019-04-20T01:37:14.473Z,11.16
2019-04-20T01:38:16.633Z,11.16
2019-04-20T01:39:10.305Z,11.00
2019-04-20T01:40:02.349Z,11.03
2019-04-20T01:40:59.137Z,11.03
2019-04-20T01:41:58.483Z,11.11
2019-04-20T01:42:59.511Z,11.21
2019-04-20T01:43:58.545Z,11.18
2019-04-20T01:44:59.001Z,11.20
2019-04-20T01:46:05.091Z,11.14
2019-04-20T01:47:01.498Z,11.03
2019-04-20T01:48:00.945Z,11.03
2019-04-20T01:48:59.939Z,10.98
2019-04-20T01:50:03.789Z,10.99
2019-04-20T01:51:05.961Z,10.81
2019-04-20T01:52:07.653Z,10.95
2019-04-20T01:53:09.975Z,10.93
2019-04-20T01:54:12.066Z,10.96
2019-04-20T01:55:21.201Z,10.95
2019-04-20T01:56:13.730Z,10.93
2019-04-20T01:57:09.493Z,10.87
2019-04-20T01:58:22.424Z,10.92
2019-04-20T01:59:16.343Z,10.84
2019-04-20T02:00:06.036Z,10.87
2019-04-20T02:00:58.842Z,10.85
2019-04-20T02:02:03.203Z,10.96
2019-04-20T02:03:01.356Z,10.93
2019-04-20T02:03:58.697Z,11.00
2019-04-20T02:05:04.455Z,11.11
2019-04-20T02:06:03.509Z,11.13
2019-04-20T02:06:59.660Z,11.18
2019-04-20T02:07:57.464Z,11.28
2019-04-20T02:09:00.289Z,11.29
2019-04-20T02:10:01.918Z,11.32
2019-04-20T02:11:00.586Z,11.24
2019-04-20T02:12:05.880Z,11.20
2019-04-20T02:13:00.181Z,11.06
2019-04-20T02:14:01.470Z,11.00
2019-04-20T02:15:00.464Z,10.91
2019-04-20T02:15:59.835Z,10.93
2019-04-20T02:17:04.491Z,10.91
2019-04-20T02:18:08.931Z,10.96
2019-04-20T02:19:09.300Z,10.93
2019-04-20T02:20:15.607Z,11.00
2019-04-20T02:21:15.172Z,10.99
2019-04-20T02:22:09.732Z,11.03
2019-04-20T02:23:10.700Z,11.05
2019-04-20T02:24:00.594Z,11.06
2019-04-20T02:24:55.262Z,11.02
2019-04-20T02:25:55.104Z,10.99
2019-04-20T02:26:55.713Z,11.03
2019-04-20T02:28:13.625Z,11.03
2019-04-20T02:29:21.595Z,10.80
2019-04-20T02:30:21.777Z,10.69
2019-04-20T02:31:38.271Z,10.69
2019-04-20T02:32:22.494Z,10.69
2019-04-20T02:33:40.153Z,10.63
2019-04-20T02:34:31.656Z,10.56
2019-04-20T02:35:30.889Z,10.53
2019-04-20T02:36:44.274Z,10.58
2019-04-20T02:38:39.197Z,10.44
2019-04-20T02:40:39.804Z,10.28
2019-04-20T02:41:32.994Z,10.33
2019-04-20T02:42:57.997Z,10.29
2019-04-20T02:45:40.036Z,10.34
2019-04-20T02:46:24.457Z,10.26
2019-04-20T02:47:35.731Z,10.39
2019-04-20T02:48:22.194Z,10.41
2019-04-20T02:51:31.262Z,10.33
2019-04-20T02:52:33.491Z,10.41
2019-04-20T02:53:31.955Z,10.36
2019-04-20T02:55:22.561Z,10.36
2019-04-20T02:56:37.429Z,10.40
2019-04-20T02:58:25.547Z,10.44
2019-04-20T03:00:19.440Z,10.36
2019-04-20T03:02:13.005Z,10.29
2019-04-20T03:03:03.229Z,10.34
2019-04-20T03:03:57.638Z,10.16
2019-04-20T03:05:06.669Z,10.11
2019-04-20T03:06:08.594Z,10.29
2019-04-20T03:07:09.361Z,10.33
2019-04-20T03:08:08.528Z,10.34
2019-04-20T03:09:56.284Z,10.53
2019-04-20T03:11:11.719Z,10.56
2019-04-20T03:12:18.759Z,10.77
2019-04-20T03:13:04.125Z,10.85
2019-04-20T03:13:59.257Z,10.75
2019-04-20T03:14:51.489Z,10.83
2019-04-20T03:16:01.907Z,10.92
2019-04-20T03:17:06.887Z,10.93
2019-04-20T03:18:55.706Z,11.06
2019-04-20T03:19:53.673Z,11.05
2019-04-20T03:21:00.688Z,10.92
2019-04-20T03:22:03.800Z,10.93
2019-04-20T03:24:06.428Z,10.92
2019-04-20T03:25:02.027Z,10.99
2019-04-20T03:25:58.504Z,10.98
2019-04-20T03:26:57.004Z,10.98
2019-04-20T03:27:59.580Z,10.99
2019-04-20T03:28:54.115Z,10.91
2019-04-20T03:29:57.789Z,10.99
2019-04-20T03:33:21.188Z,10.96
2019-04-20T03:35:05.316Z,10.93
2019-04-20T03:36:10.407Z,10.91
2019-04-20T03:37:07.342Z,10.73
2019-04-20T03:37:58.815Z,10.63
2019-04-20T03:38:57.334Z,10.59
2019-04-20T03:39:54.050Z,10.49
2019-04-20T03:40:48.349Z,10.58
2019-04-20T03:41:43.190Z,10.60
2019-04-20T03:42:37.101Z,10.63
2019-04-20T03:43:37.097Z,10.80
2019-04-20T03:44:38.884Z,10.85
2019-04-20T03:45:44.522Z,10.84
2019-04-20T03:46:45.103Z,10.95
2019-04-20T03:47:49.685Z,10.95
2019-04-20T03:48:56.246Z,10.84
2019-04-20T03:49:59.544Z,10.84
2019-04-20T03:50:57.682Z,10.87
2019-04-20T03:51:57.403Z,10.83
2019-04-20T03:52:54.261Z,10.74
2019-04-20T03:53:57.927Z,10.74
2019-04-20T03:54:48.297Z,10.81
2019-04-20T03:55:54.015Z,10.66
2019-04-20T03:56:54.447Z,10.58
2019-04-20T03:58:01.148Z,10.56
2019-04-20T03:58:50.533Z,10.53
2019-04-20T03:59:56.453Z,10.56
2019-04-20T04:00:50.426Z,10.47
2019-04-20T04:02:17.073Z,10.41
2019-04-20T04:03:08.235Z,10.34
2019-04-20T04:03:58.974Z,10.29
2019-04-20T04:04:56.335Z,10.16
2019-04-20T04:05:48.028Z,10.21
2019-04-20T04:06:44.395Z,10.13
2019-04-20T04:07:41.558Z,10.10
2019-04-20T04:08:42.909Z,9.97
2019-04-20T04:09:47.006Z,9.96
2019-04-20T04:10:54.864Z,9.92
2019-04-20T04:11:48.947Z,9.82
2019-04-20T04:12:38.361Z,9.75
2019-04-20T04:13:35.500Z,9.71
2019-04-20T04:14:34.571Z,9.67
2019-04-20T04:15:38.137Z,9.74
2019-04-20T04:16:40.974Z,9.53
2019-04-20T04:17:39.082Z,9.58
2019-04-20T04:18:40.468Z,9.55
2019-04-20T04:19:38.255Z,9.55
2019-04-20T04:20:43.359Z,9.58
2019-04-20T04:21:49.853Z,9.60
2019-04-20T04:22:51.510Z,9.50
2019-04-20T04:24:46.613Z,9.60
2019-04-20T04:25:54.146Z,9.43
2019-04-20T04:26:48.893Z,9.43
2019-04-20T04:27:53.933Z,9.45
2019-04-20T04:28:47.449Z,9.46
2019-04-20T04:29:50.937Z,9.34
2019-04-20T04:30:49.401Z,9.25
2019-04-20T04:32:01.348Z,9.29
2019-04-20T04:33:24.467Z,9.29
2019-04-20T04:33:55.741Z,9.19
2019-04-20T04:34:51.211Z,9.19
2019-04-20T04:35:51.600Z,9.22
2019-04-20T04:36:53.928Z,9.17
2019-04-20T04:37:47.102Z,9.27
2019-04-20T04:38:53.493Z,9.20
2019-04-20T04:39:48.508Z,9.29
2019-04-20T04:41:06.476Z,9.35
2019-04-20T04:42:02.151Z,9.35
2019-04-20T04:42:53.709Z,9.40
2019-04-20T04:43:49.711Z,9.35
2019-04-20T04:44:43.540Z,9.37
2019-04-20T04:45:33.565Z,9.25
2019-04-20T04:46:33.924Z,9.27
2019-04-20T04:47:32.669Z,9.24
2019-04-20T04:48:36.650Z,9.29
2019-04-20T04:49:36.676Z,9.16
2019-04-20T04:50:32.951Z,9.20
2019-04-20T04:51:42.389Z,9.28
2019-04-20T04:52:43.158Z,9.29
2019-04-20T04:53:44.230Z,9.29
2019-04-20T04:54:41.337Z,9.37
2019-04-20T04:55:41.736Z,9.34
2019-04-20T04:56:32.001Z,9.38
2019-04-20T04:57:30.888Z,9.42
2019-04-20T04:58:31.903Z,9.42
2019-04-20T04:59:31.701Z,9.49
2019-04-20T05:00:33.147Z,9.49
2019-04-20T05:01:33.985Z,9.52
2019-04-20T05:02:39.306Z,9.45
2019-04-20T05:03:44.744Z,9.46
2019-04-20T05:04:58.496Z,9.47
2019-04-20T05:05:49.188Z,9.55
2019-04-20T05:06:45.525Z,9.49
2019-04-20T05:07:43.466Z,9.42
2019-04-20T05:08:36.744Z,9.49
2019-04-20T05:09:29.951Z,9.43
2019-04-20T05:10:30.756Z,9.56
2019-04-20T05:11:30.083Z,9.61
2019-04-20T05:12:33.081Z,9.63
2019-04-20T05:13:38.087Z,9.61
2019-04-20T05:14:41.840Z,9.67
2019-04-20T05:15:44.401Z,9.74
2019-04-20T05:16:45.074Z,9.56
2019-04-20T05:17:52.749Z,9.60
2019-04-20T05:18:52.523Z,9.61
2019-04-20T05:19:47.863Z,9.70
2019-04-20T05:20:54.611Z,9.70
2019-04-20T05:21:55.253Z,9.83
2019-04-20T05:22:45.736Z,9.70
2019-04-20T05:23:41.195Z,9.71
2019-04-20T05:24:42.406Z,9.68
2019-04-20T05:25:54.717Z,9.74
2019-04-20T05:26:53.393Z,9.79
2019-04-20T05:27:47.819Z,9.82
2019-04-20T05:29:37.865Z,9.83
2019-04-20T05:30:43.500Z,9.89
2019-04-20T05:31:43.167Z,9.92
2019-04-20T05:32:44.606Z,10.00
2019-04-20T05:34:01.188Z,9.96
2019-04-20T05:35:02.073Z,9.90
2019-04-20T05:35:58.912Z,10.00
2019-04-20T05:37:04.690Z,9.93
2019-04-20T05:38:02.899Z,10.04
2019-04-20T05:38:55.203Z,10.15
2019-04-20T05:40:00.340Z,10.04
2019-04-20T05:40:59.458Z,10.15
2019-04-20T05:41:51.387Z,10.18
2019-04-20T05:42:55.589Z,10.21
2019-04-20T05:43:50.725Z,10.25
2019-04-20T05:45:01.955Z,10.36
2019-04-20T05:45:45.383Z,10.39
2019-04-20T05:46:57.150Z,10.34
2019-04-20T05:47:52.651Z,10.41
2019-04-20T05:48:56.175Z,10.46
2019-04-20T05:49:49.967Z,10.46
2019-04-20T05:50:52.816Z,10.46
2019-04-20T05:51:56.158Z,10.43
2019-04-20T05:53:01.753Z,10.43
2019-04-20T05:53:50.079Z,10.55
2019-04-20T05:54:56.279Z,10.55
2019-04-20T05:57:00.812Z,10.66
2019-04-20T05:57:56.648Z,10.63
2019-04-20T05:58:58.048Z,10.73
2019-04-20T06:00:03.569Z,10.67
2019-04-20T06:01:58.634Z,10.84
2019-04-20T06:02:54.880Z,10.96
2019-04-20T06:03:48.989Z,10.92
2019-04-20T06:05:50.752Z,11.06
2019-04-20T06:06:37.729Z,10.99
2019-04-20T06:07:35.777Z,11.11
2019-04-20T06:09:42.953Z,11.35
2019-04-20T06:10:41.799Z,11.34
2019-04-20T06:11:44.457Z,11.32
2019-04-20T06:12:37.327Z,11.34
2019-04-20T06:13:29.919Z,11.46
2019-04-20T06:14:25.732Z,11.69
2019-04-20T06:15:30.537Z,11.81
2019-04-20T06:16:44.102Z,11.94
2019-04-20T06:17:41.885Z,12.00
2019-04-20T06:18:32.475Z,12.02
2019-04-20T06:19:35.430Z,12.09
2019-04-20T06:20:36.042Z,12.09
2019-04-20T06:21:39.452Z,12.21
2019-04-20T06:22:34.985Z,12.15
2019-04-20T06:23:33.805Z,12.19
2019-04-20T06:24:49.860Z,12.30
2019-04-20T06:25:44.294Z,12.36
2019-04-20T06:26:43.788Z,12.41
2019-04-20T06:27:34.734Z,12.44
2019-04-20T06:28:30.138Z,12.61
2019-04-20T06:29:35.162Z,12.59
2019-04-20T06:30:30.854Z,12.61
2019-04-20T06:31:35.684Z,12.53
2019-04-20T06:32:33.923Z,12.61
2019-04-20T06:33:52.374Z,12.64
2019-04-20T06:34:39.946Z,12.63
2019-04-20T06:35:59.164Z,12.78
2019-04-20T06:36:43.126Z,12.71
2019-04-20T06:37:39.088Z,12.79
2019-04-20T06:38:53.909Z,12.92
2019-04-20T06:39:41.475Z,12.88
2019-04-20T06:41:57.110Z,12.97
2019-04-20T06:42:29.234Z,13.04
2019-04-20T06:43:42.093Z,13.09
2019-04-20T06:45:36.420Z,13.18
2019-04-20T06:46:36.292Z,13.21
2019-04-20T06:47:29.285Z,13.19
2019-04-20T06:48:42.642Z,13.21
2019-04-20T06:49:33.411Z,13.28
2019-04-20T06:50:32.952Z,13.40
2019-04-20T06:51:35.045Z,13.48
2019-04-20T06:52:42.168Z,13.65
2019-04-20T06:53:36.634Z,13.68
2019-04-20T06:54:25.593Z,13.61
2019-04-20T06:55:38.170Z,13.76
2019-04-20T06:56:35.418Z,13.73
2019-04-20T06:57:35.669Z,13.78
2019-04-20T06:58:46.371Z,13.86
2019-04-20T06:59:40.768Z,13.95
2019-04-20T07:00:32.142Z,13.99
2019-04-20T07:01:47.062Z,14.11
2019-04-20T07:02:38.621Z,14.20
2019-04-20T07:03:42.312Z,14.21
2019-04-20T07:04:41.836Z,14.28
2019-04-20T07:05:34.681Z,14.32
2019-04-20T07:07:33.902Z,14.80
2019-04-20T07:08:48.800Z,14.93
2019-04-20T07:09:42.402Z,15.13
2019-04-20T07:10:49.491Z,15.09
2019-04-20T07:12:27.160Z,15.34
2019-04-20T07:13:23.999Z,15.60
2019-04-20T07:14:25.835Z,15.68
2019-04-20T07:15:35.341Z,15.97
2019-04-20T07:16:28.887Z,15.99
2019-04-20T07:17:39.251Z,16.15
2019-04-20T07:18:35.257Z,16.37
2019-04-20T07:19:31.368Z,16.70
2019-04-20T07:20:39.620Z,16.60
2019-04-20T07:21:49.697Z,16.56
2019-04-20T07:22:33.779Z,16.65
2019-04-20T07:23:32.625Z,16.62
2019-04-20T07:24:35.044Z,16.71
2019-04-20T07:25:31.720Z,16.73
2019-04-20T07:26:37.449Z,16.74
2019-04-20T07:27:29.542Z,16.92
2019-04-20T07:28:31.304Z,16.99
2019-04-20T07:29:36.883Z,16.93
2019-04-20T07:30:30.033Z,16.95
2019-04-20T07:31:29.628Z,17.11
2019-04-20T07:32:23.425Z,17.11
2019-04-20T07:33:32.167Z,17.23
2019-04-20T07:34:26.606Z,17.36
2019-04-20T07:35:30.581Z,17.55
2019-04-20T07:36:32.472Z,17.69
2019-04-20T07:38:34.280Z,17.70
2019-04-20T07:39:33.110Z,17.73
2019-04-20T07:40:24.619Z,17.66
2019-04-20T07:41:45.094Z,17.70
2019-04-20T07:42:34.599Z,17.87
2019-04-20T07:43:30.092Z,17.92
2019-04-20T07:44:36.011Z,18.00
2019-04-20T07:45:30.879Z,18.11
2019-04-20T07:46:44.705Z,18.25
2019-04-20T07:47:38.704Z,18.37
2019-04-20T07:48:24.802Z,18.61
2019-04-20T07:49:32.628Z,18.62
2019-04-20T07:50:21.761Z,18.76
2019-04-20T07:51:17.649Z,18.90
2019-04-20T07:52:08.146Z,18.90
2019-04-20T07:53:25.634Z,18.87
2019-04-20T07:54:40.204Z,18.79
2019-04-20T07:56:36.038Z,18.80
2019-04-20T07:57:25.898Z,18.73
2019-04-20T07:58:18.196Z,18.84
2019-04-20T07:59:20.570Z,18.86
2019-04-20T08:00:35.606Z,18.97
2019-04-20T08:01:36.137Z,18.95
2019-04-20T08:02:36.646Z,18.92
2019-04-20T08:03:33.780Z,18.90
2019-04-20T08:04:24.613Z,18.90
2019-04-20T08:05:19.605Z,19.08
2019-04-20T08:06:15.871Z,19.09
2019-04-20T08:07:09.493Z,19.20
2019-04-20T08:08:23.907Z,19.40
2019-04-20T08:09:19.638Z,19.32
2019-04-20T08:10:11.437Z,19.38
2019-04-20T08:11:22.857Z,19.43
2019-04-20T08:12:34.575Z,19.42
2019-04-20T08:13:33.390Z,19.32
2019-04-20T08:14:31.610Z,19.33
2019-04-20T08:15:36.384Z,19.27
2019-04-20T08:16:32.883Z,19.40
2019-04-20T08:17:30.913Z,19.38
2019-04-20T08:19:24.660Z,19.40
2019-04-20T08:20:25.700Z,19.43
2019-04-20T08:21:33.357Z,19.42
2019-04-20T08:22:26.728Z,19.45
2019-04-20T08:24:21.466Z,19.50
2019-04-20T08:25:16.732Z,19.50
2019-04-20T08:26:14.233Z,19.55
2019-04-20T08:27:09.291Z,19.57
2019-04-20T08:28:06.426Z,19.55
2019-04-20T08:29:20.556Z,19.51
2019-04-20T08:30:22.816Z,19.54
2019-04-20T08:31:17.899Z,19.68
2019-04-20T08:32:25.981Z,19.72
2019-04-20T08:33:24.555Z,19.73
2019-04-20T08:34:31.261Z,19.75
2019-04-20T08:35:29.687Z,19.87
2019-04-20T08:36:27.224Z,19.94
2019-04-20T08:37:20.677Z,19.87
2019-04-20T08:39:37.430Z,19.88
2019-04-20T08:40:25.424Z,19.93
2019-04-20T08:41:20.745Z,19.98
2019-04-20T08:42:21.634Z,20.13
2019-04-20T08:43:37.710Z,20.06
2019-04-20T08:44:46.964Z,20.10
2019-04-20T08:45:23.896Z,20.13
2019-04-20T08:47:32.337Z,20.16
2019-04-20T08:48:31.424Z,20.19
2019-04-20T08:49:31.039Z,20.20
2019-04-20T08:50:22.341Z,20.00
2019-04-20T08:51:25.840Z,20.12
2019-04-20T08:52:52.088Z,20.18
2019-04-20T08:53:27.592Z,20.18
2019-04-20T08:54:23.761Z,20.12
2019-04-20T08:55:19.770Z,20.15
2019-04-20T08:56:14.232Z,20.19
2019-04-20T08:57:04.802Z,20.12
2019-04-20T08:58:02.817Z,20.10
2019-04-20T08:59:03.903Z,20.13
2019-04-20T09:00:04.979Z,20.09
2019-04-20T09:01:06.548Z,20.13
2019-04-20T09:02:08.464Z,20.23
2019-04-20T09:03:13.009Z,20.19
2019-04-20T09:04:10.838Z,20.23
2019-04-20T09:05:09.062Z,20.23
2019-04-20T09:06:08.595Z,20.27
2019-04-20T09:07:10.706Z,20.31
2019-04-20T09:08:11.350Z,20.38
2019-04-20T09:09:33.144Z,20.62
2019-04-20T09:10:28.172Z,20.65
2019-04-20T09:11:19.623Z,20.66
2019-04-20T09:12:16.748Z,20.71
2019-04-20T09:13:11.588Z,20.80
2019-04-20T09:14:03.855Z,20.75
2019-04-20T09:15:01.673Z,20.72
2019-04-20T09:16:02.119Z,20.50
2019-04-20T09:17:05.873Z,20.47
2019-04-20T09:18:05.546Z,20.51
2019-04-20T09:19:07.034Z,20.53
2019-04-20T09:20:09.638Z,20.51
2019-04-20T09:21:09.049Z,20.42
2019-04-20T09:22:12.193Z,20.43
2019-04-20T09:23:17.194Z,20.61
2019-04-20T09:24:31.996Z,20.61
2019-04-20T09:26:16.241Z,20.65
2019-04-20T09:27:14.269Z,20.66
2019-04-20T09:28:14.597Z,20.76
2019-04-20T09:29:12.653Z,20.84
2019-04-20T09:30:16.054Z,20.96
2019-04-20T09:31:18.474Z,21.06
2019-04-20T09:32:21.584Z,21.06
2019-04-20T09:33:14.692Z,21.11
2019-04-20T09:34:15.725Z,21.27
2019-04-20T09:35:22.159Z,21.17
2019-04-20T09:36:15.311Z,21.08
2019-04-20T09:37:22.380Z,21.09
2019-04-20T09:38:14.499Z,21.19
2019-04-20T09:39:11.355Z,21.12
2019-04-20T09:40:16.314Z,21.17
2019-04-20T09:41:22.010Z,21.08
2019-04-20T09:42:01.454Z,21.06
2019-04-20T09:43:00.224Z,21.06
2019-04-20T09:44:00.363Z,21.09
2019-04-20T09:45:02.788Z,21.12
2019-04-20T09:46:03.592Z,21.23
2019-04-20T09:47:01.689Z,21.36
2019-04-20T09:48:00.553Z,21.33
2019-04-20T09:49:06.367Z,21.38
2019-04-20T09:50:18.816Z,21.48
2019-04-20T09:51:20.369Z,21.51
2019-04-20T09:52:13.605Z,21.44
2019-04-20T09:53:14.295Z,21.54
2019-04-20T09:54:17.447Z,21.59
2019-04-20T09:55:10.814Z,21.60
2019-04-20T09:56:18.241Z,21.61
2019-04-20T09:57:21.313Z,21.76
2019-04-20T09:58:14.817Z,21.78
2019-04-20T09:59:16.574Z,21.84
2019-04-20T10:00:15.857Z,21.78
2019-04-20T10:01:13.298Z,21.84
2019-04-20T10:02:06.581Z,21.81
2019-04-20T10:02:58.324Z,21.79
2019-04-20T10:03:59.023Z,21.82
2019-04-20T10:04:58.021Z,21.86
2019-04-20T10:05:59.226Z,21.91
2019-04-20T10:07:02.253Z,21.92
2019-04-20T10:08:01.233Z,21.81
2019-04-20T10:09:00.464Z,21.75
2019-04-20T10:09:57.910Z,21.69
2019-04-20T10:10:57.598Z,21.64
2019-04-20T10:11:57.633Z,21.79
2019-04-20T10:12:58.357Z,21.91
2019-04-20T10:13:58.564Z,21.78
2019-04-20T10:15:02.678Z,21.78
2019-04-20T10:15:57.669Z,21.92
2019-04-20T10:16:57.978Z,21.92
2019-04-20T10:17:57.113Z,21.85
2019-04-20T10:18:57.037Z,21.95
2019-04-20T10:19:57.762Z,21.97
2019-04-20T10:20:57.953Z,22.13
2019-04-20T10:21:57.025Z,22.12
2019-04-20T10:22:56.751Z,22.16
2019-04-20T10:23:56.683Z,22.01
2019-04-20T10:24:57.156Z,21.95
2019-04-20T10:25:56.625Z,21.97
2019-04-20T10:26:56.627Z,22.02
2019-04-20T10:27:57.578Z,22.05
2019-04-20T10:28:57.486Z,22.00
2019-04-20T10:29:57.502Z,22.08
2019-04-20T10:30:56.773Z,22.17
2019-04-20T10:32:00.107Z,22.16
2019-04-20T10:32:57.366Z,22.22
2019-04-20T10:33:55.975Z,22.28
2019-04-20T10:34:56.823Z,22.30
2019-04-20T10:35:57.330Z,22.31
2019-04-20T10:36:55.763Z,22.31
2019-04-20T10:37:55.739Z,22.35
2019-04-20T10:38:55.624Z,22.22
2019-04-20T10:39:56.560Z,22.46
2019-04-20T10:41:04.403Z,22.63
2019-04-20T10:41:59.015Z,22.54
2019-04-20T10:42:58.190Z,22.49
2019-04-20T10:43:56.612Z,22.52
2019-04-20T10:44:57.207Z,22.68
2019-04-20T10:45:55.132Z,22.74
2019-04-20T10:46:55.060Z,22.81
2019-04-20T10:47:55.086Z,22.83
2019-04-20T10:48:57.221Z,22.72
2019-04-20T10:49:55.347Z,22.84
2019-04-20T10:50:54.884Z,22.69
2019-04-20T10:51:55.783Z,22.79
2019-04-20T10:52:55.994Z,22.81
2019-04-20T10:53:54.567Z,22.89
2019-04-20T10:54:54.504Z,22.94
2019-04-20T10:55:55.597Z,22.86
2019-04-20T10:56:55.412Z,22.75
2019-04-20T10:57:55.591Z,22.89
2019-04-20T10:58:54.219Z,23.11
2019-04-20T10:59:55.382Z,23.20
2019-04-20T11:00:55.356Z,23.24
2019-04-20T11:08:56.318Z,23.43
2019-04-20T11:10:04.381Z,23.60
2019-04-20T11:11:07.364Z,23.80
2019-04-20T11:11:56.365Z,24.01
2019-04-20T11:12:55.058Z,24.16
2019-04-20T11:13:55.355Z,24.37
2019-04-20T11:14:54.924Z,24.15
2019-04-20T11:15:54.879Z,24.30
2019-04-20T11:16:56.126Z,24.29
2019-04-20T11:17:57.563Z,24.23
2019-04-20T11:19:47.564Z,24.22
2019-04-20T11:20:47.072Z,23.95
2019-04-20T11:21:48.208Z,23.68
2019-04-20T11:22:46.936Z,23.75
2019-04-20T11:23:46.867Z,23.82
2019-04-20T11:24:48.158Z,24.04
2019-04-20T11:25:46.731Z,24.08
2019-04-20T11:26:46.904Z,24.01
2019-04-20T11:27:47.987Z,24.07
2019-04-20T11:28:46.522Z,23.98
2019-04-20T11:29:46.453Z,24.07
2019-04-20T11:30:46.385Z,24.05
2019-04-20T11:31:49.505Z,24.40
2019-04-20T11:32:46.359Z,24.76
2019-04-20T11:33:46.180Z,25.32
2019-04-20T11:34:47.110Z,25.72
2019-04-20T11:35:46.899Z,25.67
2019-04-20T11:36:45.976Z,26.01
2019-04-20T11:37:47.048Z,26.18
2019-04-20T11:38:47.045Z,26.76
2019-04-20T11:39:45.776Z,27.49
2019-04-20T11:40:46.890Z,28.36
2019-04-20T11:41:45.812Z,28.87
2019-04-20T11:42:45.708Z,29.00
2019-04-20T11:43:45.512Z,28.09
2019-04-20T11:44:46.732Z,27.35
2019-04-20T11:45:46.725Z,27.94
2019-04-20T11:46:45.318Z,28.10
2019-04-20T11:47:45.357Z,28.29
2019-04-20T11:48:45.489Z,28.43
2019-04-20T11:49:45.814Z,28.66
2019-04-20T11:50:45.391Z,28.87
2019-04-20T11:51:45.551Z,28.78
2019-04-20T11:52:48.136Z,28.50
2019-04-20T11:53:45.989Z,28.36
2019-04-20T11:54:44.818Z,28.31
2019-04-20T11:55:44.757Z,28.26
2019-04-20T11:56:47.164Z,28.38
2019-04-20T11:57:45.236Z,28.66
2019-04-20T11:58:44.904Z,29.01
2019-04-20T11:59:45.339Z,29.13
2019-04-20T12:00:55.261Z,29.51
2019-04-20T12:01:51.976Z,29.14
2019-04-20T12:02:46.486Z,29.66
2019-04-20T12:03:54.268Z,30.06
2019-04-20T12:04:54.362Z,30.27
2019-04-20T12:05:48.221Z,29.89
2019-04-20T12:06:44.100Z,29.66
2019-04-20T12:07:44.806Z,30.24
2019-04-20T12:08:45.364Z,30.14
2019-04-20T12:09:43.931Z,30.14
2019-04-20T12:10:49.250Z,30.30
2019-04-20T12:11:54.957Z,29.75
2019-04-20T12:12:47.865Z,29.21
2019-04-20T12:13:44.870Z,29.23
2019-04-20T12:14:43.641Z,29.48
2019-04-20T12:15:43.575Z,29.66
2019-04-20T12:16:43.780Z,29.68
2019-04-20T12:17:43.932Z,29.58
2019-04-20T12:18:44.358Z,29.37
2019-04-20T12:19:43.881Z,29.25
2019-04-20T12:20:43.289Z,29.71
2019-04-20T12:21:43.231Z,30.33
2019-04-20T12:22:44.261Z,31.01
2019-04-20T12:23:44.435Z,31.21
2019-04-20T12:24:44.450Z,31.14
2019-04-20T12:25:44.580Z,31.24
2019-04-20T12:26:42.946Z,30.94
2019-04-20T12:27:50.745Z,30.11
2019-04-20T12:28:43.380Z,30.46
2019-04-20T12:29:43.628Z,30.21
2019-04-20T12:30:43.869Z,30.32
2019-04-20T12:31:44.292Z,30.37
2019-04-20T12:32:47.791Z,30.75
2019-04-20T12:33:42.550Z,30.60
2019-04-20T12:34:43.422Z,31.23
2019-04-20T12:35:42.642Z,30.87
2019-04-20T12:36:42.830Z,30.43
2019-04-20T12:37:43.150Z,30.90
2019-04-20T12:38:43.346Z,30.37
2019-04-20T12:39:42.897Z,29.36
2019-04-20T12:40:42.156Z,29.74
2019-04-20T12:41:49.796Z,30.06
2019-04-20T12:42:43.181Z,29.77
2019-04-20T12:43:41.987Z,30.10
2019-04-20T12:44:41.930Z,30.57
2019-04-20T12:45:42.128Z,30.06
2019-04-20T12:46:41.819Z,30.39
2019-04-20T12:47:41.775Z,30.21
2019-04-20T12:48:41.870Z,29.65
2019-04-20T12:49:41.649Z,29.68
2019-04-20T12:50:41.605Z,30.15
2019-04-20T12:51:48.711Z,30.55
2019-04-20T12:52:41.481Z,31.31
2019-04-20T12:53:42.597Z,31.14
2019-04-20T12:54:44.246Z,31.04
2019-04-20T12:55:41.310Z,30.65
2019-04-20T12:56:42.509Z,30.75
2019-04-20T12:57:41.198Z,30.03
2019-04-20T12:58:43.375Z,28.98
2019-04-20T12:59:43.669Z,29.58
2019-04-20T13:00:41.664Z,30.11
2019-04-20T13:01:41.523Z,30.19
2019-04-20T13:02:41.159Z,30.92
2019-04-20T13:03:41.560Z,30.79
2019-04-20T13:04:41.561Z,29.53
2019-04-20T13:05:40.753Z,29.38
2019-04-20T13:06:40.934Z,29.97
2019-04-20T13:07:46.057Z,29.89
2019-04-20T13:08:44.426Z,30.12
2019-04-20T13:09:40.875Z,30.44
2019-04-20T13:10:40.466Z,30.44
2019-04-20T13:11:50.733Z,30.71
2019-04-20T13:12:40.757Z,30.70
2019-04-20T13:13:40.805Z,30.34
2019-04-20T13:14:40.240Z,30.49
2019-04-20T13:15:40.565Z,31.15
2019-04-20T13:16:40.598Z,31.11
2019-04-20T13:17:40.118Z,30.53
2019-04-20T13:18:41.148Z,30.74
2019-04-20T13:19:39.961Z,31.15
2019-04-20T13:20:39.939Z,31.61
2019-04-20T13:21:40.985Z,31.14
2019-04-20T13:22:40.900Z,31.05
2019-04-20T13:23:40.621Z,30.56
2019-04-20T13:24:40.896Z,30.12
2019-04-20T13:25:39.622Z,30.21
2019-04-20T13:26:40.646Z,30.50
2019-04-20T13:27:40.621Z,30.26
2019-04-20T13:28:39.455Z,30.17
2019-04-20T13:29:40.495Z,30.14
2019-04-20T13:30:39.725Z,29.50
2019-04-20T13:31:39.974Z,29.44
2019-04-20T13:32:39.229Z,29.29
2019-04-20T13:33:39.178Z,29.84
2019-04-20T13:34:40.303Z,30.21